createdAt,value
2019-04-10T00:01:06.441Z,12.43
2019-04-10T00:03:37.976Z,12.95
2019-04-10T00:06:04.719Z,12.87
2019-04-10T00:08:34.422Z,12.70
2019-04-10T00:11:03.212Z,12.23
2019-04-10T00:13:31.908Z,12.95
2019-04-10T00:16:00.542Z,12.35
2019-04-10T00:18:29.778Z,12.85
2019-04-10T00:20:58.695Z,12.07
2019-04-10T00:23:27.491Z,12.60
2019-04-10T00:25:57.264Z,12.33
2019-04-10T00:28:25.992Z,11.45
2019-04-10T00:30:55.657Z,12.05
2019-04-10T00:33:24.975Z,12.73
2019-04-10T00:35:54.651Z,13.48
2019-04-10T00:38:24.075Z,12.40
2019-04-10T00:40:52.814Z,12.58
2019-04-10T00:43:22.480Z,12.10
2019-04-10T00:45:51.717Z,12.58
2019-04-10T00:48:20.303Z,12.35
2019-04-10T00:50:48.972Z,12.90
2019-04-10T00:53:19.016Z,13.72
2019-04-10T00:55:48.222Z,11.85
2019-04-10T00:58:16.917Z,11.80
2019-04-10T01:00:46.015Z,12.80
2019-04-10T01:03:17.588Z,11.97
2019-04-10T01:05:47.149Z,11.73
2019-04-10T01:08:16.173Z,12.30
2019-04-10T01:10:44.727Z,13.53
2019-04-10T01:13:13.543Z,12.77
2019-04-10T01:15:42.690Z,13.80
2019-04-10T01:18:11.243Z,12.27
2019-04-10T01:20:39.882Z,12.55
2019-04-10T01:23:09.832Z,12.73
2019-04-10T01:25:38.756Z,12.80
2019-04-10T01:28:07.531Z,13.72
2019-04-10T01:30:36.182Z,12.37
2019-04-10T01:33:06.169Z,12.37
2019-04-10T01:35:34.836Z,13.23
2019-04-10T01:38:05.874Z,12.07
2019-04-10T01:40:35.201Z,11.83
2019-04-10T01:43:09.686Z,12.58
2019-04-10T01:45:34.383Z,13.65
2019-04-10T01:48:03.743Z,12.50
2019-04-10T01:50:34.763Z,12.98
2019-04-10T01:53:03.758Z,12.40
2019-04-10T01:55:33.231Z,12.23
2019-04-10T01:58:05.152Z,12.65
2019-04-10T02:00:35.529Z,12.65
2019-04-10T02:03:04.299Z,13.22
2019-04-10T02:05:33.610Z,12.85
2019-04-10T02:08:08.548Z,13.37
2019-04-10T02:10:32.999Z,12.82
2019-04-10T02:13:01.579Z,13.08
2019-04-10T02:15:30.246Z,13.03
2019-04-10T02:17:59.156Z,13.08
2019-04-10T02:20:29.170Z,12.83
2019-04-10T02:22:58.232Z,13.70
2019-04-10T02:25:27.068Z,13.53
2019-04-10T02:27:56.397Z,12.70
2019-04-10T02:30:26.200Z,13.13
2019-04-10T02:32:55.862Z,13.38
2019-04-10T02:35:25.218Z,12.90
2019-04-10T02:37:56.067Z,13.65
2019-04-10T02:40:25.555Z,12.45
2019-04-10T02:42:54.781Z,15.00
2019-04-10T02:45:24.194Z,12.73
2019-04-10T02:47:54.925Z,12.93
2019-04-10T02:50:25.330Z,13.15
2019-04-10T02:52:55.025Z,13.32
2019-04-10T02:55:25.058Z,12.70
2019-04-10T02:57:54.301Z,12.58
2019-04-10T03:00:25.033Z,13.53
2019-04-10T03:02:55.552Z,12.23
2019-04-10T03:05:27.182Z,12.20
2019-04-10T03:07:55.984Z,11.70
2019-04-10T03:10:33.617Z,12.18
2019-04-10T03:12:56.535Z,11.95
2019-04-10T03:15:25.348Z,11.95
2019-04-10T03:17:54.578Z,12.97
2019-04-10T03:20:24.654Z,11.57
2019-04-10T03:22:53.453Z,11.67
2019-04-10T03:25:22.591Z,11.68
2019-04-10T03:27:52.448Z,11.08
2019-04-10T03:30:23.450Z,11.48
2019-04-10T03:33:09.361Z,11.22
2019-04-10T03:35:41.039Z,12.10
2019-04-10T03:38:09.969Z,11.25
2019-04-10T03:40:39.617Z,11.60
2019-04-10T03:43:08.436Z,11.10
2019-04-10T03:45:37.027Z,11.25
2019-04-10T03:48:06.438Z,11.63
2019-04-10T03:50:36.123Z,11.20
2019-04-10T03:53:05.527Z,11.95
2019-04-10T03:55:34.884Z,10.95
2019-04-10T03:58:03.453Z,10.83
2019-04-10T04:00:32.709Z,10.85
2019-04-10T04:03:02.298Z,11.10
2019-04-10T04:05:31.059Z,10.13
2019-04-10T04:07:59.716Z,10.63
2019-04-10T04:10:28.795Z,12.00
2019-04-10T04:12:57.400Z,10.60
2019-04-10T04:15:26.180Z,10.43
2019-04-10T04:17:54.838Z,10.90
2019-04-10T04:20:23.499Z,10.50
2019-04-10T04:22:52.898Z,10.37
2019-04-10T04:25:21.932Z,9.83
2019-04-10T04:27:50.562Z,11.15
2019-04-10T04:30:20.380Z,10.23
2019-04-10T04:32:50.441Z,10.90
2019-04-10T04:35:19.944Z,9.73
2019-04-10T04:37:48.687Z,10.23
2019-04-10T04:40:17.521Z,10.30
2019-04-10T04:42:47.122Z,10.88
2019-04-10T04:45:15.796Z,10.80
2019-04-10T04:47:44.431Z,9.33
2019-04-10T04:50:14.206Z,10.68
2019-04-10T04:52:43.546Z,9.75
2019-04-10T04:55:12.744Z,9.35
2019-04-10T04:57:42.274Z,9.65
2019-04-10T05:00:11.200Z,9.73
2019-04-10T05:02:40.303Z,9.93
2019-04-10T05:05:09.280Z,9.75
2019-04-10T05:07:38.031Z,10.32
2019-04-10T05:10:11.177Z,9.83
2019-04-10T05:12:40.877Z,9.90
2019-04-10T05:15:10.933Z,9.95
2019-04-10T05:17:39.858Z,10.13
2019-04-10T05:20:09.209Z,10.15
2019-04-10T05:22:38.144Z,10.00
2019-04-10T05:25:06.979Z,11.45
2019-04-10T05:27:35.526Z,8.83
2019-04-10T05:30:06.903Z,9.07
2019-04-10T05:32:35.807Z,9.78
2019-04-10T05:35:08.548Z,9.43
2019-04-10T05:37:38.022Z,9.05
2019-04-10T05:40:07.787Z,8.67
2019-04-10T05:42:37.405Z,10.15
2019-04-10T05:45:07.315Z,9.10
2019-04-10T05:47:36.651Z,9.70
2019-04-10T05:50:06.922Z,9.33
2019-04-10T05:52:35.500Z,8.85
2019-04-10T05:55:04.672Z,9.75
2019-04-10T05:57:33.330Z,9.08
2019-04-10T06:00:02.744Z,10.20
2019-04-10T06:02:32.137Z,9.45
2019-04-10T06:05:02.225Z,8.73
2019-04-10T06:07:31.366Z,9.20
2019-04-10T06:10:04.808Z,9.40
2019-04-10T06:12:30.882Z,8.68
2019-04-10T06:14:59.461Z,9.08
2019-04-10T06:17:28.071Z,9.63
2019-04-10T06:19:56.739Z,8.90
2019-04-10T06:22:26.454Z,8.08
2019-04-10T06:24:55.075Z,8.05
2019-04-10T06:27:24.196Z,7.67
2019-04-10T06:29:53.180Z,8.00
2019-04-10T06:32:22.423Z,8.15
2019-04-10T06:34:51.248Z,8.40
2019-04-10T06:37:19.885Z,7.97
2019-04-10T06:39:49.427Z,9.05
2019-04-10T06:42:18.014Z,8.35
2019-04-10T06:44:46.694Z,7.90
2019-04-10T06:47:15.271Z,8.33
2019-04-10T06:49:44.043Z,8.43
2019-04-10T06:52:12.913Z,7.92
2019-04-10T06:54:41.679Z,7.53
2019-04-10T06:57:10.491Z,9.25
2019-04-10T06:59:39.902Z,8.30
2019-04-10T07:02:16.619Z,8.93
2019-04-10T07:04:46.014Z,8.23
2019-04-10T07:07:12.925Z,8.90
2019-04-10T07:09:40.365Z,8.53
2019-04-10T07:12:10.021Z,8.45
2019-04-10T07:14:43.883Z,9.13
2019-04-10T07:17:10.635Z,8.75
2019-04-10T07:19:43.648Z,8.90
2019-04-10T07:22:12.921Z,8.15
2019-04-10T07:24:42.560Z,8.53
2019-04-10T07:27:12.658Z,8.93
2019-04-10T07:29:42.505Z,8.67
2019-04-10T07:32:12.305Z,9.15
2019-04-10T07:34:42.506Z,8.88
2019-04-10T07:37:21.650Z,9.13
2019-04-10T07:39:52.987Z,9.36
2019-04-10T07:42:29.435Z,8.95
2019-04-10T07:44:52.031Z,9.13
2019-04-10T07:47:22.200Z,8.63
2019-04-10T07:49:50.934Z,10.10
2019-04-10T07:52:21.101Z,9.10
2019-04-10T07:54:56.701Z,9.88
2019-04-10T07:57:28.734Z,9.13
2019-04-10T07:59:57.441Z,8.87
2019-04-10T08:02:26.135Z,9.23
2019-04-10T08:05:19.522Z,9.35
2019-04-10T08:08:14.768Z,9.58
2019-04-10T08:10:45.165Z,10.40
2019-04-10T08:13:14.196Z,9.88
2019-04-10T08:15:43.354Z,9.55
2019-04-10T08:18:13.244Z,8.85
2019-04-10T08:20:51.258Z,9.95
2019-04-10T08:23:21.861Z,9.98
2019-04-10T08:25:51.674Z,10.03
2019-04-10T08:28:24.133Z,10.97
2019-04-10T08:30:52.746Z,10.13
2019-04-10T08:33:21.829Z,10.90
2019-04-10T08:35:52.680Z,11.15
2019-04-10T08:38:35.162Z,11.28
2019-04-10T08:41:05.130Z,10.98
2019-04-10T08:43:37.854Z,11.30
2019-04-10T08:46:06.564Z,11.53
2019-04-10T08:48:35.270Z,12.05
2019-04-10T08:51:06.482Z,12.78
2019-04-10T08:53:36.230Z,12.28
2019-04-10T08:56:04.855Z,11.18
2019-04-10T08:58:35.922Z,12.53
2019-04-10T09:01:25.134Z,12.23
2019-04-10T09:03:59.428Z,12.85
2019-04-10T09:06:28.642Z,13.08
2019-04-10T09:09:13.506Z,13.45
2019-04-10T09:11:49.385Z,12.13
2019-04-10T09:14:19.094Z,12.90
2019-04-10T09:16:55.223Z,13.30
2019-04-10T09:19:26.362Z,12.55
2019-04-10T09:21:55.487Z,13.88
2019-04-10T09:24:26.361Z,12.33
2019-04-10T09:27:05.663Z,13.00
2019-04-10T09:29:36.234Z,13.22
2019-04-10T09:32:08.459Z,13.20
2019-04-10T09:34:38.001Z,13.08
2019-04-10T09:37:07.810Z,13.20
2019-04-10T09:39:36.739Z,13.90
2019-04-10T09:42:06.756Z,13.78
2019-04-10T09:44:43.094Z,13.85
2019-04-10T09:47:14.254Z,13.80
2019-04-10T09:49:46.151Z,13.03
2019-04-10T09:52:14.528Z,14.03
2019-04-10T09:54:43.195Z,13.28
2019-04-10T09:57:11.877Z,14.57
2019-04-10T09:59:41.238Z,13.10
2019-04-10T10:02:11.178Z,13.27
2019-04-10T10:04:40.144Z,13.75
2019-04-10T10:07:10.286Z,12.98
2019-04-10T10:09:41.008Z,13.80
2019-04-10T10:12:11.570Z,13.30
2019-04-10T10:14:42.159Z,14.10
2019-04-10T10:17:11.014Z,13.45
2019-04-10T10:19:40.638Z,13.35
2019-04-10T10:22:09.441Z,12.95
2019-04-10T10:24:38.549Z,13.30
2019-04-10T10:27:07.445Z,13.60
2019-04-10T10:29:37.641Z,14.18
2019-04-10T10:32:06.376Z,15.33
2019-04-10T10:34:34.968Z,14.90
2019-04-10T10:37:09.017Z,14.43
2019-04-10T10:39:37.687Z,14.30
2019-04-10T10:42:07.485Z,14.33
2019-04-10T10:44:36.316Z,14.73
2019-04-10T10:47:06.169Z,14.47
2019-04-10T10:49:34.949Z,15.90
2019-04-10T10:52:03.637Z,15.25
2019-04-10T10:54:38.374Z,15.23
2019-04-10T10:59:35.910Z,15.20
2019-04-10T11:02:06.423Z,16.30
2019-04-10T11:04:35.835Z,15.08
2019-04-10T11:07:04.787Z,15.90
2019-04-10T11:09:34.139Z,15.25
2019-04-10T11:12:24.288Z,15.28
2019-04-10T11:14:53.808Z,14.68
2019-04-10T11:17:28.189Z,14.45
2019-04-10T11:19:57.239Z,14.33
2019-04-10T11:22:26.542Z,13.65
2019-04-10T11:24:55.744Z,14.47
2019-04-10T11:27:25.330Z,13.43
2019-04-10T11:29:55.065Z,13.28
2019-04-10T11:32:26.529Z,13.40
2019-04-10T11:34:56.885Z,13.03
2019-04-10T11:39:58.617Z,14.30
2019-04-10T11:42:29.043Z,14.45
2019-04-10T11:45:08.098Z,13.15
2019-04-10T11:47:39.686Z,13.62
2019-04-10T11:50:17.864Z,13.70
2019-04-10T11:52:50.012Z,13.32
2019-04-10T11:55:19.952Z,13.58
2019-04-10T11:57:48.619Z,13.30
2019-04-10T12:03:12.524Z,12.70
2019-04-10T12:05:42.291Z,12.40
2019-04-10T12:08:36.236Z,13.58
2019-04-10T12:13:22.503Z,13.13
2019-04-10T12:15:51.225Z,13.08
2019-04-10T12:18:19.851Z,12.28
2019-04-10T12:20:49.250Z,12.58
2019-04-10T12:23:18.814Z,13.28
2019-04-10T12:25:47.487Z,12.28
2019-04-10T12:28:16.179Z,12.55
2019-04-10T12:30:58.335Z,12.73
2019-04-10T12:33:30.225Z,11.38
2019-04-10T12:35:58.926Z,12.37
2019-04-10T12:38:32.462Z,12.05
2019-04-10T12:41:03.814Z,12.07
2019-04-10T12:43:41.068Z,13.75
2019-04-10T12:46:12.868Z,12.85
2019-04-10T12:48:53.183Z,12.13
2019-04-10T12:51:27.912Z,11.90
2019-04-10T12:54:01.009Z,11.93
2019-04-10T12:56:30.386Z,12.40
2019-04-10T12:58:59.381Z,11.57
2019-04-10T13:04:36.487Z,12.40
2019-04-10T13:07:07.803Z,13.32
2019-04-10T13:09:40.555Z,12.45
2019-04-10T13:12:09.252Z,12.27
2019-04-10T13:17:38.944Z,10.32
2019-04-10T13:26:37.801Z,11.45
2019-04-10T13:29:08.829Z,11.10
2019-04-10T13:31:37.721Z,11.22
2019-04-10T13:34:06.359Z,10.50
2019-04-10T13:36:39.708Z,10.30
2019-04-10T13:39:17.486Z,10.10
2019-04-10T13:41:46.228Z,11.53
2019-04-10T13:44:16.007Z,10.78
2019-04-10T13:46:49.070Z,11.53
2019-04-10T13:49:17.836Z,12.50
2019-04-10T13:51:47.689Z,12.33
2019-04-10T13:54:17.619Z,11.68
2019-04-10T13:56:49.597Z,10.97
2019-04-10T13:59:21.034Z,11.48
2019-04-10T14:01:52.209Z,11.63
2019-04-10T14:04:20.903Z,11.35
2019-04-10T14:06:49.771Z,11.75
2019-04-10T14:09:34.570Z,10.35
2019-04-10T14:11:53.373Z,11.02
2019-04-10T14:14:22.449Z,11.60
2019-04-10T14:16:51.177Z,11.30
2019-04-10T14:19:19.784Z,11.33
2019-04-10T14:21:49.180Z,10.93
2019-04-10T14:24:18.510Z,11.55
2019-04-10T14:27:04.255Z,10.73
2019-04-10T14:29:32.918Z,10.93
2019-04-10T14:32:07.093Z,11.45
2019-04-10T14:34:36.654Z,11.05
2019-04-10T14:37:07.316Z,11.18
2019-04-10T14:39:37.621Z,11.15
2019-04-10T14:42:06.616Z,11.20
2019-04-10T14:44:35.255Z,10.38
2019-04-10T14:47:04.684Z,10.85
2019-04-10T14:49:33.483Z,10.85
2019-04-10T14:52:03.208Z,10.88
2019-04-10T14:54:32.165Z,11.63
2019-04-10T14:57:02.358Z,10.32
2019-04-10T14:59:31.794Z,12.00
2019-04-10T15:02:00.530Z,10.77
2019-04-10T15:04:33.102Z,11.00
2019-04-10T15:07:01.893Z,10.98
2019-04-10T15:09:30.776Z,11.37
2019-04-10T15:11:59.442Z,11.20
2019-04-10T15:14:28.535Z,9.90
2019-04-10T15:17:04.030Z,11.05
2019-04-10T15:19:29.565Z,10.33
2019-04-10T15:21:59.102Z,10.50
2019-04-10T15:24:27.994Z,10.03
2019-04-10T15:26:57.169Z,10.65
2019-04-10T15:29:26.099Z,11.12
2019-04-10T15:31:55.856Z,11.45
2019-04-10T15:34:26.338Z,11.53
2019-04-10T15:36:56.403Z,10.90
2019-04-10T15:39:32.285Z,11.25
2019-04-10T15:41:55.517Z,10.80
2019-04-10T15:44:25.884Z,10.55
2019-04-10T15:46:54.788Z,10.38
2019-04-10T15:49:23.442Z,9.70
2019-04-10T15:51:53.087Z,11.55
2019-04-10T15:54:23.674Z,10.32
2019-04-10T15:56:52.275Z,10.78
2019-04-10T15:59:21.891Z,9.75
2019-04-10T16:01:51.034Z,10.38
2019-04-10T16:04:19.651Z,10.35
2019-04-10T16:06:49.234Z,10.23
2019-04-10T16:09:19.039Z,10.17
2019-04-10T16:11:50.171Z,9.88
2019-04-10T16:14:23.191Z,10.05
2019-04-10T16:16:54.852Z,10.08
2019-04-10T16:19:31.271Z,10.55
2019-04-10T16:22:01.083Z,11.13
2019-04-10T16:24:29.766Z,10.18
2019-04-10T16:26:58.364Z,11.65
2019-04-10T16:29:27.263Z,10.60
2019-04-10T16:31:56.643Z,11.20
2019-04-10T16:34:26.880Z,10.53
2019-04-10T16:36:55.528Z,10.38
2019-04-10T16:39:25.670Z,10.20
2019-04-10T16:41:54.575Z,9.75
2019-04-10T16:44:23.332Z,11.00
2019-04-10T16:46:53.105Z,10.05
2019-04-10T16:49:22.571Z,9.95
2019-04-10T16:51:52.435Z,10.23
2019-04-10T16:54:22.096Z,10.23
2019-04-10T16:56:50.728Z,9.03
2019-04-10T16:59:19.974Z,10.05
2019-04-10T17:01:48.990Z,10.10
2019-04-10T17:04:18.804Z,9.85
2019-04-10T17:06:48.136Z,9.35
2019-04-10T17:09:18.720Z,9.83
2019-04-10T17:11:47.557Z,9.50
2019-04-10T17:14:17.395Z,11.08
2019-04-10T17:16:46.172Z,10.30
2019-04-10T17:19:15.931Z,11.03
2019-04-10T17:21:45.054Z,10.38
2019-04-10T17:24:15.363Z,10.13
2019-04-10T17:26:44.096Z,9.58
2019-04-10T17:29:13.248Z,10.00
2019-04-10T17:31:42.946Z,10.05
2019-04-10T17:34:12.651Z,9.58
2019-04-10T17:36:41.586Z,9.93
2019-04-10T17:39:13.265Z,9.25
2019-04-10T17:41:43.944Z,9.45
2019-04-10T17:44:14.286Z,9.05
2019-04-10T17:46:45.286Z,9.55
2019-04-10T17:49:17.004Z,9.45
2019-04-10T17:51:47.168Z,9.33
2019-04-10T17:54:18.336Z,9.90
2019-04-10T17:56:50.618Z,9.13
2019-04-10T17:59:20.613Z,9.20
2019-04-10T18:01:51.520Z,9.30
2019-04-10T18:04:20.445Z,8.60
2019-04-10T18:06:50.071Z,9.35
2019-04-10T18:09:21.377Z,9.70
2019-04-10T18:11:50.514Z,9.90
2019-04-10T18:14:20.435Z,9.93
2019-04-10T18:16:49.794Z,10.55
2019-04-10T18:19:19.129Z,10.08
2019-04-10T18:21:48.234Z,9.53
2019-04-10T18:24:17.088Z,9.55
2019-04-10T18:26:46.317Z,9.05
2019-04-10T18:29:15.654Z,9.68
2019-04-10T18:31:45.383Z,8.70
2019-04-10T18:34:15.428Z,9.93
2019-04-10T18:36:46.428Z,9.78
2019-04-10T18:39:16.833Z,9.13
2019-04-10T18:41:46.666Z,10.05
2019-04-10T18:44:17.101Z,9.25
2019-04-10T18:46:46.924Z,9.55
2019-04-10T18:49:17.554Z,10.30
2019-04-10T18:51:48.392Z,8.43
2019-04-10T18:54:18.574Z,8.05
2019-04-10T18:56:49.420Z,8.10
2019-04-10T18:59:36.632Z,8.55
2019-04-10T19:02:10.382Z,7.90
2019-04-10T19:04:41.510Z,9.07
2019-04-10T19:07:11.238Z,8.05
2019-04-10T19:09:41.083Z,7.85
2019-04-10T19:12:11.015Z,8.13
2019-04-10T19:14:40.618Z,7.62
2019-04-10T19:17:10.987Z,7.75
2019-04-10T19:19:42.361Z,7.10
2019-04-10T19:22:15.908Z,8.30
2019-04-10T19:24:46.550Z,7.00
2019-04-10T19:27:18.086Z,7.43
2019-04-10T19:29:49.036Z,8.13
2019-04-10T19:32:24.996Z,8.37
2019-04-10T19:34:54.914Z,8.17
2019-04-10T19:37:26.051Z,7.70
2019-04-10T19:39:58.461Z,8.40
2019-04-10T19:42:29.371Z,7.83
2019-04-10T19:44:59.518Z,8.13
2019-04-10T19:47:30.485Z,7.33
2019-04-10T19:50:03.471Z,7.87
2019-04-10T19:52:33.183Z,9.50
2019-04-10T19:55:03.672Z,7.65
2019-04-10T19:57:33.310Z,7.97
2019-04-10T20:00:04.215Z,7.23
2019-04-10T20:02:35.241Z,7.53
2019-04-10T20:05:09.468Z,7.87
2019-04-10T20:07:39.481Z,8.10
2019-04-10T20:10:10.795Z,8.58
2019-04-10T20:12:40.510Z,8.23
2019-04-10T20:15:12.174Z,7.83
2019-04-10T20:17:41.315Z,8.25
2019-04-10T20:20:11.553Z,7.85
2019-04-10T20:22:41.848Z,7.62
2019-04-10T20:25:12.417Z,7.08
2019-04-10T20:27:42.469Z,8.13
2019-04-10T20:30:12.032Z,7.57
2019-04-10T20:32:41.969Z,7.90
2019-04-10T20:35:11.900Z,7.45
2019-04-10T20:37:41.155Z,7.70
2019-04-10T20:40:10.228Z,7.50
2019-04-10T20:42:40.426Z,7.47
2019-04-10T20:45:10.019Z,8.28
2019-04-10T20:47:39.439Z,7.10
2019-04-10T20:50:08.170Z,7.93
2019-04-10T20:52:40.528Z,7.22
2019-04-10T20:55:09.093Z,7.00
2019-04-10T20:57:39.480Z,7.67
2019-04-10T21:00:10.134Z,7.50
2019-04-10T21:02:39.354Z,7.85
2019-04-10T21:05:10.062Z,7.87
2019-04-10T21:07:39.618Z,7.75
2019-04-10T21:10:08.851Z,7.10
2019-04-10T21:12:37.958Z,7.90
2019-04-10T21:15:07.242Z,7.20
2019-04-10T21:17:35.938Z,7.08
2019-04-10T21:20:07.870Z,7.23
2019-04-10T21:22:38.333Z,7.22
2019-04-10T21:25:08.280Z,8.20
2019-04-10T21:27:37.641Z,7.25
2019-04-10T21:30:20.481Z,7.20
2019-04-10T21:33:09.150Z,7.37
2019-04-10T21:35:39.364Z,7.20
2019-04-10T21:38:08.150Z,8.45
2019-04-10T21:40:36.862Z,7.40
2019-04-10T21:43:06.055Z,7.45
2019-04-10T21:45:35.127Z,7.33
2019-04-10T21:48:04.235Z,7.07
2019-04-10T21:50:33.332Z,7.50
2019-04-10T21:53:01.968Z,7.30
2019-04-10T21:55:31.147Z,8.20
2019-04-10T21:57:59.877Z,6.87
2019-04-10T22:00:36.887Z,7.20
2019-04-10T22:03:05.465Z,7.67
2019-04-10T22:05:36.688Z,7.33
2019-04-10T22:08:16.797Z,7.80
2019-04-10T22:10:48.218Z,7.45
2019-04-10T22:13:17.417Z,8.15
2019-04-10T22:15:47.401Z,7.55
2019-04-10T22:18:16.998Z,7.30
2019-04-10T22:20:45.852Z,8.18
2019-04-10T22:23:16.011Z,7.40
2019-04-10T22:25:45.868Z,7.65
2019-04-10T22:28:14.988Z,7.03
2019-04-10T22:30:43.771Z,8.55
2019-04-10T22:33:12.343Z,7.22
2019-04-10T22:35:42.067Z,7.37
2019-04-10T22:38:11.145Z,7.40
2019-04-10T22:40:40.135Z,7.27
2019-04-10T22:43:08.746Z,7.42
2019-04-10T22:45:38.123Z,7.20
2019-04-10T22:48:08.253Z,8.30
2019-04-10T22:50:36.997Z,7.17
2019-04-10T22:53:06.752Z,7.20
2019-04-10T22:55:35.793Z,7.25
2019-04-10T22:58:04.602Z,7.12
2019-04-10T23:00:33.604Z,6.90
2019-04-10T23:03:03.178Z,7.45
2019-04-10T23:05:32.445Z,7.72
2019-04-10T23:08:01.327Z,7.20
2019-04-10T23:10:29.957Z,7.70
2019-04-10T23:13:04.171Z,7.10
2019-04-10T23:15:29.437Z,7.65
2019-04-10T23:17:59.211Z,6.63
2019-04-10T23:20:28.363Z,7.75
2019-04-10T23:22:58.848Z,7.78
2019-04-10T23:25:28.723Z,7.08
2019-04-10T23:27:57.436Z,7.90
2019-04-10T23:30:26.709Z,6.80
2019-04-10T23:32:55.496Z,7.55
2019-04-10T23:35:25.425Z,7.22
2019-04-10T23:37:55.121Z,7.17
2019-04-10T23:40:25.012Z,7.53
2019-04-10T23:43:05.746Z,7.15
2019-04-10T23:45:24.501Z,7.90
2019-04-10T23:47:53.903Z,7.22
2019-04-10T23:50:22.545Z,7.37
2019-04-10T23:52:51.891Z,7.30
2019-04-10T23:55:21.804Z,7.00
2019-04-10T23:57:51.703Z,7.35
